Lakeland Linder Regional Airport Lakeland US
ICAO: KLAL
IATA: LAL
Category: Medium
Scheduled Services: No

Elevation: 142 ft
TransAlt. 18000 ft.

Airport Communications:
TAMPA APP/DEP:119.9
ATIS:118.025
CTAF:124.5
GND:121.4
ST PETERSBURG RDO:116
TWR:124.5
UNICOM:122.95

KLAL Zoom In..

If you have problems with the map follow the link
https://www.worldairports.se/pages/airport.php?
ICAO=KLAL

Runways:

(A) RW 05 length 5005 ft width 150 ft
---- / hdg 49

(B) RW 09 length 8499 ft width 150 ft
ILS 110.10 / hdg 94

(C) RW 23 length 5005 ft width 150 ft
---- / hdg 229

(D) RW 27 length 8499 ft width 150 ft
---- / hdg 274

Location; KLAL
Day. 18 / Time. 23.50 Zulu
* Altimeter: 30.16
* Temperature: 28° c. 82.4°f.
* Wind from: 090° Speed 08 kn.
Dewpoint: 19° c.
Visibility: 10 Statute Miles.
Clouds: Clear (manual report).

KLAL 182350Z 09008KT 10SM SKC 28/19 A3016


Wind From 090°
Speed 08 kn.

 
 
jpsmedia.com for Web Design worldairports.se 2018   terms of use